Waite, ME

6:51 AM EST on December 18, 2014 (GMT -0500)
HeatherWood Farm | Change Station
CLOSE
Current Station
Personal Weather Station
Location: Princeton, ME
Elevation: 262 ft
Nearby Weather Stations
Active Advisory: Winter Storm Warning Active Notice: Public Information Statement

Elev 262 ft 45.21 °N, 67.54 °W | Updated 5 minutes ago

Overcast
Overcast
29.8 °F
Feels Like 30 °F
N
1.0
Wind Variable Wind from NW
Gusts 10.0 mph

Today
High -- | Low -- °F
--% Chance of Precip.
Yesterday
High -- | Low -- °F
Precip. -- in
7:05 AM 3:49 PM
Waning Crescent, 15% visible
Pressure 29.54 in
Visibility 1.2 miles
Clouds Overcast 1100 ft
Windchill 30 °F
Dew Point 29 °F
Humidity 96%
Rainfall 0.09 in
Snow Depth Not available.
UV 0 out of 12
Pollen .10 out of 12
Air Quality Not available.
Flu Activity Not available.
SPECI KHUL 181129Z AUTO 35013G21KT 1 1/4SM -SN BR OVC011 M02/M04 A2954 RMK AO2 P0000 T10221039

More Conditions Fewer Conditions

Pressure 29.54 in
Visibility 1.2 miles
Clouds Overcast 1100 ft
Windchill 30 °F
Dew Point 29 °F
Humidity 96%
Rainfall 0.09 in
Snow Depth Not available.
UV 0 out of 12
Pollen .10 out of 12
Air Quality Not available.
Flu Activity Not available.
SPECI KHUL 181129Z AUTO 35013G21KT 1 1/4SM -SN BR OVC011 M02/M04 A2954 RMK AO2 P0000 T10221039

More Conditions Fewer Conditions

10-Day Weather Forecast

Almanac

Astronomy

Dec. 18, 2014 Rise Set
Actual Time
Civil Twilight
Nautical Twilight
Astronomical Twilight
Moon
Length of Visible Light
Length of Day
Tomorrow will be .
, % of the Moon is Illuminated

Today's Extremes

State Highs State Lows

Community

WunderPhotos

Upload Photos

1,778,919 photos uploaded!

WunderBlogs® & News

Nearby

Air Quality

  Air Quality AQ Index Pollutant
Not available.

Snow Depth

Station Depth Elevation

Earthquake Activity

City Distance Mag. Time & Date
Minimum magnitude displayed is 2.5.

Coastal Water Temperatures

Place Temperature

Nearby Weather Stations